No particular awareness of the weather is required.    There are no Weather-warnings


Meteo18 Weather Cam more information Meteo18 Weather Cam


Thunder radar more information blitzortung!


Rain radar more information rain snow radar


Visit our other weather sites:

Template documentation
and downloads

And another site



Weather Underground History page Text

Daily Summary for July 6, 2017 Units:  English    Metric   Both
« Previous Day
Next Day »
Daily Weekly Monthly Yearly Custom
  High: Low: Average:
Temperature: TemperatureC °F 17.6 °F 26.2 °F
Dew Point: DewpointC °F 13.8 °F 16.3 °F
Humidity: Humidity % 33 % 58 %
Wind Speed: WindSpeedKMH mph 0.0 mph 2.8 mph
Wind Gust: WindSpeedGustKMH mph - -
Wind:- - South
Pressure: PressurehPa in 1015.5 in -
Precipitation: 0.0 in    
Historical Graphs
 
 
Tabular Data for July 6, 2017
Time Temperature Dew Point Pressure Wind Wind Speed Wind Gust Humidity Rainfall Rate (Hourly)
TemperatureC °F DewpointC °F PressurehPa in Calm     Humidity % HourlyPrecipMM in
00:02 22.9 °F 16.4 °F 1016.5 in NNE 3.2 mph 3.2 mph 67 % 0.0 in
00:07 22.9 °F 16.7 °F 1016.5 in North 1.6 mph 3.2 mph 68 % 0.0 in
00:12 22.7 °F 16.7 °F 1016.5 in North 3.2 mph 3.2 mph 69 % 0.0 in
00:17 22.6 °F 16.4 °F 1016.5 in NNE 3.2 mph 4.8 mph 68 % 0.0 in
00:22 22.7 °F 16.5 °F 1016.5 in Calm   4.8 mph 68 % 0.0 in
00:27 22.6 °F 16.4 °F 1016.5 in NNE 4.8 mph 4.8 mph 68 % 0.0 in
00:32 22.2 °F 16.5 °F 1016.5 in North 1.6 mph 4.8 mph 70 % 0.0 in
00:42 22.0 °F 16.3 °F 1016.5 in North 1.6 mph 4.8 mph 70 % 0.0 in
00:47 22.1 °F 16.4 °F 1016.5 in NNW 1.6 mph 3.2 mph 70 % 0.0 in
00:52 21.9 °F 16.2 °F 1016.5 in NW 3.2 mph 4.8 mph 70 % 0.0 in
00:57 21.5 °F 16.2 °F 1016.5 in NW 1.6 mph 4.8 mph 72 % 0.0 in
01:02 21.3 °F 16.3 °F 1016.5 in NW 1.6 mph 4.8 mph 73 % 0.0 in
01:07 21.4 °F 16.1 °F 1016.5 in Calm   3.2 mph 72 % 0.0 in
01:12 21.4 °F 15.9 °F 1016.5 in Calm   3.2 mph 71 % 0.0 in
01:17 21.2 °F 16.2 °F 1016.5 in Calm   3.2 mph 73 % 0.0 in
01:22 20.9 °F 15.9 °F 1016.5 in NW 3.2 mph 3.2 mph 73 % 0.0 in
01:27 20.9 °F 15.9 °F 1016.5 in Calm   3.2 mph 73 % 0.0 in
01:32 20.9 °F 15.9 °F 1016.5 in Calm   3.2 mph 73 % 0.0 in
01:37 20.9 °F 16.1 °F 1016.5 in Calm   3.2 mph 74 % 0.0 in
01:42 20.8 °F 16.2 °F 1016.5 in North 1.6 mph 3.2 mph 75 % 0.0 in
01:47 20.6 °F 16.2 °F 1016.5 in Calm   3.2 mph 76 % 0.0 in
01:52 20.4 °F 16.0 °F 1016.5 in Calm   3.2 mph 76 % 0.0 in
01:57 20.2 °F 16.0 °F 1016.5 in Calm   3.2 mph 77 % 0.0 in
02:02 20.0 °F 16.0 °F 1016.5 in Calm   1.6 mph 78 % 0.0 in
02:07 19.8 °F 16.1 °F 1016.5 in Calm   1.6 mph 79 % 0.0 in
02:12 19.7 °F 15.8 °F 1016.5 in Calm     78 % 0.0 in
02:17 19.8 °F 15.9 °F 1016.5 in Calm   1.6 mph 78 % 0.0 in
02:22 19.8 °F 15.9 °F 1016.5 in Calm   1.6 mph 78 % 0.0 in
02:27 19.7 °F 16.0 °F 1016.5 in Calm   1.6 mph 79 % 0.0 in
02:32 19.6 °F 15.9 °F 1016.5 in Calm     79 % 0.0 in
02:37 19.4 °F 15.7 °F 1016.5 in Calm     79 % 0.0 in
02:42 19.2 °F 15.7 °F 1016.5 in Calm     80 % 0.0 in
02:47 19.1 °F 15.8 °F 1016.5 in Calm     81 % 0.0 in
02:52 19.2 °F 15.7 °F 1016.5 in Calm     80 % 0.0 in
02:57 19.4 °F 15.7 °F 1016.5 in Calm     79 % 0.0 in
03:02 19.6 °F 15.7 °F 1016.5 in Calm     78 % 0.0 in
03:07 19.4 °F 15.7 °F 1016.5 in Calm     79 % 0.0 in
03:12 19.2 °F 15.5 °F 1016.5 in Calm     79 % 0.0 in
03:17 19.1 °F 15.6 °F 1016.5 in Calm   1.6 mph 80 % 0.0 in
03:22 18.8 °F 15.5 °F 1016.5 in Calm   1.6 mph 81 % 0.0 in
03:27 18.6 °F 15.5 °F 1016.5 in Calm   1.6 mph 82 % 0.0 in
03:32 18.4 °F 15.3 °F 1016.5 in Calm     82 % 0.0 in
03:37 18.3 °F 15.4 °F 1016.8 in Calm     83 % 0.0 in
03:42 18.3 °F 15.4 °F 1016.8 in Calm     83 % 0.0 in
03:47 18.3 °F 15.4 °F 1016.8 in Calm     83 % 0.0 in
03:52 18.3 °F 15.4 °F 1016.8 in Calm     83 % 0.0 in
03:57 18.3 °F 15.4 °F 1016.8 in Calm     83 % 0.0 in
04:02 18.3 °F 15.5 °F 1016.5 in Calm     84 % 0.0 in
04:07 18.2 °F 15.5 °F 1016.8 in Calm     84 % 0.0 in
04:12 18.2 °F 15.5 °F 1016.5 in Calm     84 % 0.0 in
04:17 18.1 °F 15.4 °F 1016.8 in Calm     84 % 0.0 in
04:22 17.9 °F 15.3 °F 1016.5 in Calm     85 % 0.0 in
04:27 17.8 °F 15.2 °F 1016.5 in Calm     85 % 0.0 in
04:32 18.1 °F 15.5 °F 1016.5 in Calm     85 % 0.0 in
04:37 18.2 °F 15.5 °F 1016.5 in Calm     84 % 0.0 in
04:42 18.3 °F 15.5 °F 1016.5 in Calm     84 % 0.0 in
04:47 18.1 °F 15.4 °F 1016.5 in Calm     84 % 0.0 in
04:52 18.1 °F 15.5 °F 1016.5 in Calm     85 % 0.0 in
04:57 18.2 °F 15.5 °F 1016.5 in Calm     84 % 0.0 in
05:02 18.2 °F 15.5 °F 1016.5 in Calm     84 % 0.0 in
05:12 17.9 °F 15.2 °F 1016.8 in Calm     84 % 0.0 in
05:17 17.6 °F 15.2 °F 1016.8 in Calm     86 % 0.0 in
05:22 17.7 °F 15.3 °F 1016.8 in Calm     86 % 0.0 in
05:27 17.8 °F 15.4 °F 1016.8 in Calm     86 % 0.0 in
05:32 18.2 °F 15.5 °F 1017.2 in Calm     84 % 0.0 in
05:37 18.1 °F 15.4 °F 1017.2 in Calm     84 % 0.0 in
05:42 18.0 °F 15.3 °F 1017.2 in Calm     84 % 0.0 in
05:47 17.8 °F 15.2 °F 1017.2 in Calm     85 % 0.0 in
05:52 18.1 °F 15.5 °F 1017.2 in Calm     85 % 0.0 in
05:57 18.3 °F 15.5 °F 1017.2 in Calm     84 % 0.0 in
06:02 18.2 °F 15.5 °F 1017.2 in Calm     84 % 0.0 in
06:07 18.0 °F 15.4 °F 1017.2 in Calm     85 % 0.0 in
06:12 18.1 °F 15.5 °F 1017.2 in Calm     85 % 0.0 in
06:17 18.0 °F 15.4 °F 1017.5 in Calm     85 % 0.0 in
06:22 17.9 °F 15.3 °F 1017.5 in Calm     85 % 0.0 in
06:27 17.9 °F 15.5 °F 1017.5 in Calm     86 % 0.0 in
06:32 18.1 °F 15.7 °F 1017.5 in Calm     86 % 0.0 in
06:37 18.4 °F 15.6 °F 1017.5 in Calm     84 % 0.0 in
06:42 18.4 °F 15.6 °F 1017.5 in Calm     84 % 0.0 in
06:52 18.2 °F 15.5 °F 1017.2 in Calm     84 % 0.0 in
07:02 18.2 °F 15.6 °F 1017.5 in Calm     85 % 0.0 in
07:07 18.4 °F 15.8 °F 1017.5 in Calm     85 % 0.0 in
07:12 18.7 °F 15.9 °F 1017.5 in Calm     84 % 0.0 in
07:17 19.2 °F 16.4 °F 1017.5 in Calm     84 % 0.0 in
07:22 19.6 °F 16.2 °F 1017.5 in Calm     81 % 0.0 in
07:27 19.9 °F 16.5 °F 1017.8 in Calm   3.2 mph 81 % 0.0 in
07:32 20.3 °F 17.1 °F 1017.5 in SW 1.6 mph 3.2 mph 82 % 0.0 in
07:37 20.6 °F 17.4 °F 1017.5 in Calm   3.2 mph 82 % 0.0 in
07:42 20.6 °F 17.2 °F 1017.5 in Calm   1.6 mph 81 % 0.0 in
07:47 20.8 °F 17.2 °F 1017.5 in Calm   1.6 mph 80 % 0.0 in
07:52 21.2 °F 17.6 °F 1017.5 in Calm   1.6 mph 80 % 0.0 in
07:57 21.8 °F 17.6 °F 1017.5 in Calm     77 % 0.0 in
08:02 22.0 °F 17.2 °F 1017.5 in Calm     74 % 0.0 in
08:07 21.9 °F 17.3 °F 1017.5 in Calm   1.6 mph 75 % 0.0 in
08:12 22.1 °F 17.2 °F 1017.5 in Calm   1.6 mph 74 % 0.0 in
08:17 21.8 °F 17.2 °F 1017.5 in Calm   1.6 mph 75 % 0.0 in
08:22 21.6 °F 17.4 °F 1017.5 in Calm     77 % 0.0 in
08:27 21.7 °F 17.3 °F 1017.8 in Calm     76 % 0.0 in
08:32 21.9 °F 17.7 °F 1017.5 in SE 1.6 mph   77 % 0.0 in
08:42 21.9 °F 17.3 °F 1017.8 in SE 1.6 mph 1.6 mph 75 % 0.0 in
08:52 22.8 °F 17.7 °F 1017.8 in Calm   1.6 mph 73 % 0.0 in
08:57 23.3 °F 18.0 °F 1017.8 in SE 1.6 mph 3.2 mph 72 % 0.0 in
09:02 23.5 °F 17.7 °F 1017.8 in ENE 1.6 mph 3.2 mph 70 % 0.0 in
09:07 23.7 °F 18.1 °F 1017.8 in SE 1.6 mph 4.8 mph 71 % 0.0 in
09:12 24.1 °F 18.1 °F 1017.8 in South 3.2 mph 4.8 mph 69 % 0.0 in
09:17 23.9 °F 17.9 °F 1017.8 in Calm   4.8 mph 69 % 0.0 in
09:22 24.1 °F 17.8 °F 1017.8 in SW 3.2 mph 6.4 mph 68 % 0.0 in
09:27 24.2 °F 17.9 °F 1018.2 in Calm   6.4 mph 68 % 0.0 in
09:32 24.5 °F 18.2 °F 1018.2 in SSW 3.2 mph 4.8 mph 68 % 0.0 in
09:37 24.6 °F 18.3 °F 1018.2 in South 1.6 mph 4.8 mph 68 % 0.0 in
09:42 24.8 °F 18.0 °F 1018.2 in SW 1.6 mph 4.8 mph 66 % 0.0 in
09:47 25.2 °F 18.2 °F 1018.2 in Calm   4.8 mph 65 % 0.0 in
09:52 25.5 °F 17.9 °F 1018.2 in South 3.2 mph 4.8 mph 63 % 0.0 in
09:57 25.8 °F 18.0 °F 1018.5 in WSW 3.2 mph 6.4 mph 62 % 0.0 in
10:02 26.2 °F 17.8 °F 1018.5 in SW 8.0 mph 8.0 mph 60 % 0.0 in
10:07 26.2 °F 17.8 °F 1018.5 in SW 4.8 mph 9.7 mph 60 % 0.0 in
10:12 26.2 °F 17.3 °F 1018.5 in SW 4.8 mph 9.7 mph 58 % 0.0 in
10:17 26.2 °F 16.4 °F 1018.5 in SW 4.8 mph 9.7 mph 55 % 0.0 in
10:22 26.5 °F 16.4 °F 1018.5 in SW 3.2 mph 9.7 mph 54 % 0.0 in
10:27 26.9 °F 14.3 °F 1018.5 in SW 9.7 mph 11.3 mph 46 % 0.0 in
10:32 27.1 °F 13.8 °F 1018.2 in West 4.8 mph 12.9 mph 44 % 0.0 in
10:42 27.1 °F 14.5 °F 1018.2 in SW 4.8 mph 16.1 mph 46 % 0.0 in
10:47 27.1 °F 14.8 °F 1018.2 in SW 4.8 mph 16.1 mph 47 % 0.0 in
11:17 28.3 °F 15.6 °F 1018.2 in West 6.4 mph 12.9 mph 46 % 0.0 in
11:27 28.6 °F 14.8 °F 1018.2 in SW 6.4 mph 12.9 mph 43 % 0.0 in
11:32 28.8 °F 15.0 °F 1018.2 in Calm   12.9 mph 43 % 0.0 in
11:37 29.0 °F 15.2 °F 1018.2 in WSW 3.2 mph 12.9 mph 43 % 0.0 in
11:42 29.1 °F 15.6 °F 1018.2 in WSW 8.0 mph 11.3 mph 44 % 0.0 in
11:47 29.2 °F 17.1 °F 1017.8 in SSW 6.4 mph 11.3 mph 48 % 0.0 in
11:52 29.3 °F 15.8 °F 1017.8 in West 8.0 mph 9.7 mph 44 % 0.0 in
11:57 29.4 °F 16.6 °F 1018.2 in South 8.0 mph 11.3 mph 46 % 0.0 in
12:02 29.6 °F 16.8 °F 1018.2 in West 4.8 mph 11.3 mph 46 % 0.0 in
12:07 29.6 °F 15.0 °F 1018.2 in South 3.2 mph 11.3 mph 41 % 0.0 in
12:12 29.8 °F 16.2 °F 1018.2 in SW 8.0 mph 11.3 mph 44 % 0.0 in
12:17 29.8 °F 14.7 °F 1018.2 in SW 4.8 mph 9.7 mph 40 % 0.0 in
12:27 30.4 °F 14.9 °F 1017.8 in ESE 3.2 mph 9.7 mph 39 % 0.0 in
12:32 30.7 °F 15.2 °F 1017.8 in Calm   8.0 mph 39 % 0.0 in
12:42 31.0 °F 15.0 °F 1017.8 in Calm   8.0 mph 38 % 0.0 in
12:47 31.0 °F 15.0 °F 1017.8 in South 1.6 mph 8.0 mph 38 % 0.0 in
12:52 30.9 °F 14.5 °F 1017.8 in West 1.6 mph 9.7 mph 37 % 0.0 in
12:57 31.3 °F 14.4 °F 1017.8 in Calm   9.7 mph 36 % 0.0 in
13:02 31.7 °F 14.8 °F 1017.8 in Calm   9.7 mph 36 % 0.0 in
13:07 31.5 °F 15.0 °F 1017.8 in SW 3.2 mph 6.4 mph 37 % 0.0 in
13:12 31.5 °F 14.6 °F 1017.8 in Calm   8.0 mph 36 % 0.0 in
13:17 31.9 °F 15.0 °F 1017.8 in SSE 1.6 mph 8.0 mph 36 % 0.0 in
13:22 32.2 °F 15.2 °F 1017.8 in Calm   8.0 mph 36 % 0.0 in
13:27 32.3 °F 15.3 °F 1017.5 in Calm   8.0 mph 36 % 0.0 in
13:32 32.0 °F 14.6 °F 1017.5 in Calm   8.0 mph 35 % 0.0 in
13:37 31.9 °F 15.8 °F 1017.8 in SE 3.2 mph 9.7 mph 38 % 0.0 in
13:42 32.4 °F 15.8 °F 1017.5 in SSW 11.3 mph 11.3 mph 37 % 0.0 in
13:47 32.1 °F 16.0 °F 1017.5 in SW 9.7 mph 16.1 mph 38 % 0.0 in
13:52 31.9 °F 15.4 °F 1017.5 in SW 4.8 mph 16.1 mph 37 % 0.0 in
13:57 32.2 °F 14.8 °F 1017.5 in East 1.6 mph 16.1 mph 35 % 0.0 in
14:02 32.6 °F 15.6 °F 1017.5 in ESE 6.4 mph 11.3 mph 36 % 0.0 in
14:07 32.8 °F 14.9 °F 1017.5 in Calm   11.3 mph 34 % 0.0 in
14:12 33.5 °F 15.5 °F 1017.5 in Calm   9.7 mph 34 % 0.0 in
14:17 33.4 °F 17.1 °F 1017.5 in SW 6.4 mph 9.7 mph 38 % 0.0 in
14:22 32.8 °F 15.3 °F 1017.5 in WSW 11.3 mph 12.9 mph 35 % 0.0 in
14:27 32.4 °F 15.4 °F 1017.5 in WSW 3.2 mph 12.9 mph 36 % 0.0 in
14:32 32.7 °F 15.7 °F 1017.2 in SSW 3.2 mph 12.9 mph 36 % 0.0 in
14:37 32.8 °F 16.6 °F 1017.2 in South 8.0 mph 11.3 mph 38 % 0.0 in
14:42 33.0 °F 17.6 °F 1017.2 in SW 8.0 mph 9.7 mph 40 % 0.0 in
14:47 33.1 °F 15.1 °F 1017.2 in SE 1.6 mph 9.7 mph 34 % 0.0 in
14:52 33.2 °F 16.1 °F 1017.2 in ESE 6.4 mph 9.7 mph 36 % 0.0 in
14:57 33.4 °F 15.8 °F 1017.2 in SE 3.2 mph 9.7 mph 35 % 0.0 in
15:02 33.4 °F 15.8 °F 1017.2 in SW 1.6 mph 9.7 mph 35 % 0.0 in
15:12 33.7 °F 16.1 °F 1016.8 in ESE 4.8 mph 8.0 mph 35 % 0.0 in
15:17 33.9 °F 15.8 °F 1016.8 in ENE 4.8 mph 8.0 mph 34 % 0.0 in
15:22 34.2 °F 16.1 °F 1016.5 in East 1.6 mph 16.1 mph 34 % 0.0 in
15:27 34.4 °F 16.3 °F 1016.5 in SE 3.2 mph 16.1 mph 34 % 0.0 in
15:32 34.3 °F 17.1 °F 1016.5 in South 8.0 mph 16.1 mph 36 % 0.0 in
15:37 34.0 °F 15.9 °F 1016.1 in Calm   14.5 mph 34 % 0.0 in
15:42 34.4 °F 16.7 °F 1016.1 in East 11.3 mph 12.9 mph 35 % 0.0 in
15:52 34.4 °F 15.8 °F 1016.1 in ESE 9.7 mph 17.7 mph 33 % 0.0 in
15:57 34.5 °F 15.9 °F 1016.1 in SE 9.7 mph 17.7 mph 33 % 0.0 in
16:02 34.6 °F 16.4 °F 1016.1 in SE 8.0 mph 16.1 mph 34 % 0.0 in
16:07 34.4 °F 15.8 °F 1016.1 in South 6.4 mph 16.1 mph 33 % 0.0 in
16:12 34.1 °F 15.5 °F 1016.1 in SSE 6.4 mph 16.1 mph 33 % 0.0 in
16:17 33.8 °F 16.6 °F 1016.1 in ENE 6.4 mph 16.1 mph 36 % 0.0 in
16:22 33.9 °F 15.4 °F 1016.1 in SE 4.8 mph 16.1 mph 33 % 0.0 in
16:27 33.7 °F 15.7 °F 1016.1 in South 4.8 mph 14.5 mph 34 % 0.0 in
16:32 33.2 °F 15.7 °F 1016.1 in SSE 4.8 mph 14.5 mph 35 % 0.0 in
16:37 33.0 °F 15.0 °F 1016.1 in SE 9.7 mph 12.9 mph 34 % 0.0 in
16:42 32.9 °F 15.4 °F 1016.1 in SSE 3.2 mph 14.5 mph 35 % 0.0 in
16:47 32.9 °F 15.4 °F 1016.1 in SSE 3.2 mph 14.5 mph 35 % 0.0 in
16:52 32.9 °F 15.4 °F 1016.1 in ESE 6.4 mph 14.5 mph 35 % 0.0 in
16:57 32.9 °F 15.9 °F 1016.1 in SSE 8.0 mph 14.5 mph 36 % 0.0 in
17:02 33.2 °F 15.7 °F 1015.8 in South 3.2 mph 14.5 mph 35 % 0.0 in
17:07 33.4 °F 15.8 °F 1015.8 in ESE 12.9 mph 14.5 mph 35 % 0.0 in
17:12 33.8 °F 16.6 °F 1015.8 in South 4.8 mph 16.1 mph 36 % 0.0 in
17:17 34.2 °F 16.1 °F 1015.8 in West 1.6 mph 16.1 mph 34 % 0.0 in
17:22 34.3 °F 15.7 °F 1015.8 in ESE 3.2 mph 16.1 mph 33 % 0.0 in
17:27 34.3 °F 17.1 °F 1015.8 in South 6.4 mph 16.1 mph 36 % 0.0 in
17:32 34.4 °F 17.2 °F 1015.8 in South 6.4 mph 14.5 mph 36 % 0.0 in
17:42 34.0 °F 15.9 °F 1015.8 in SSE 11.3 mph 16.1 mph 34 % 0.0 in
17:47 33.7 °F 16.6 °F 1015.8 in SW 8.0 mph 16.1 mph 36 % 0.0 in
17:52 33.4 °F 16.3 °F 1015.8 in SSE 3.2 mph 16.1 mph 36 % 0.0 in
17:57 33.1 °F 16.5 °F 1015.8 in SSW 4.8 mph 16.1 mph 37 % 0.0 in
18:02 32.9 °F 16.3 °F 1015.8 in SE 8.0 mph 12.9 mph 37 % 0.0 in
18:07 32.7 °F 16.5 °F 1015.8 in SE 1.6 mph 16.1 mph 38 % 0.0 in
18:12 32.4 °F 16.3 °F 1015.8 in SSE 6.4 mph 16.1 mph 38 % 0.0 in
18:17 32.3 °F 17.0 °F 1015.8 in ESE 4.8 mph 17.7 mph 40 % 0.0 in
18:22 32.6 °F 17.2 °F 1015.8 in SW 6.4 mph 17.7 mph 40 % 0.0 in
18:27 32.9 °F 17.5 °F 1015.5 in SSE 4.8 mph 16.1 mph 40 % 0.0 in
18:32 33.0 °F 17.2 °F 1015.8 in SW 8.0 mph 14.5 mph 39 % 0.0 in
18:42 32.6 °F 16.8 °F 1015.8 in SSE 4.8 mph 17.7 mph 39 % 0.0 in
18:47 32.4 °F 17.1 °F 1015.8 in SSE 11.3 mph 17.7 mph 40 % 0.0 in
18:52 32.2 °F 16.1 °F 1015.8 in SSW 8.0 mph 17.7 mph 38 % 0.0 in
18:57 31.8 °F 16.9 °F 1015.8 in SW 8.0 mph 17.7 mph 41 % 0.0 in
19:02 31.6 °F 16.7 °F 1015.8 in SSW 6.4 mph 17.7 mph 41 % 0.0 in
19:07 31.5 °F 17.0 °F 1015.8 in South 8.0 mph 16.1 mph 42 % 0.0 in
19:12 31.4 °F 16.9 °F 1015.5 in SW 4.8 mph 12.9 mph 42 % 0.0 in
19:17 31.3 °F 17.6 °F 1015.5 in SSW 6.4 mph 12.9 mph 44 % 0.0 in
19:22 31.3 °F 17.6 °F 1015.8 in SSE 4.8 mph 12.9 mph 44 % 0.0 in
19:27 31.3 °F 17.2 °F 1015.8 in SSE 3.2 mph 9.7 mph 43 % 0.0 in
19:32 31.2 °F 17.1 °F 1015.5 in South 4.8 mph 9.7 mph 43 % 0.0 in
19:37 31.2 °F 17.1 °F 1015.5 in South 3.2 mph 9.7 mph 43 % 0.0 in
19:42 31.2 °F 17.5 °F 1015.5 in SSW 1.6 mph 9.7 mph 44 % 0.0 in
19:47 31.2 °F 17.5 °F 1015.8 in SE 3.2 mph 9.7 mph 44 % 0.0 in
19:52 31.1 °F 17.8 °F 1015.8 in SE 1.6 mph 8.0 mph 45 % 0.0 in
19:57 31.0 °F 18.0 °F 1015.5 in SSE 1.6 mph 8.0 mph 46 % 0.0 in
20:02 30.9 °F 17.6 °F 1015.5 in SSE 1.6 mph 8.0 mph 45 % 0.0 in
20:07 30.8 °F 17.1 °F 1015.5 in ESE 3.2 mph 4.8 mph 44 % 0.0 in
20:12 30.8 °F 17.1 °F 1015.5 in SE 4.8 mph 6.4 mph 44 % 0.0 in
20:17 30.6 °F 17.3 °F 1015.8 in SW 1.6 mph 6.4 mph 45 % 0.0 in
20:22 30.4 °F 17.5 °F 1015.8 in SSE 3.2 mph 8.0 mph 46 % 0.0 in
20:27 30.3 °F 17.0 °F 1015.8 in SSE 1.6 mph 8.0 mph 45 % 0.0 in
20:32 30.2 °F 17.3 °F 1015.8 in SE 1.6 mph 8.0 mph 46 % 0.0 in
20:37 30.1 °F 17.2 °F 1015.8 in Calm   4.8 mph 46 % 0.0 in
20:42 29.9 °F 17.4 °F 1015.8 in Calm   4.8 mph 47 % 0.0 in
20:47 29.6 °F 17.8 °F 1016.1 in SSW 3.2 mph 4.8 mph 49 % 0.0 in
20:52 29.1 °F 17.3 °F 1016.1 in SW 4.8 mph 8.0 mph 49 % 0.0 in
20:57 28.9 °F 17.1 °F 1016.1 in SW 4.8 mph 8.0 mph 49 % 0.0 in
21:02 28.9 °F 16.8 °F 1016.1 in SW 4.8 mph 6.4 mph 48 % 0.0 in
21:12 29.2 °F 17.1 °F 1016.1 in West 8.0 mph 9.7 mph 48 % 0.0 in
21:17 29.3 °F 16.8 °F 1016.1 in SW 4.8 mph 9.7 mph 47 % 0.0 in
21:22 29.4 °F 16.9 °F 1016.1 in West 4.8 mph 16.1 mph 47 % 0.0 in
21:27 29.4 °F 16.6 °F 1016.5 in SSW 4.8 mph 16.1 mph 46 % 0.0 in
21:32 29.3 °F 16.5 °F 1016.5 in West 8.0 mph 16.1 mph 46 % 0.0 in
21:37 29.2 °F 16.7 °F 1016.5 in WSW 4.8 mph 14.5 mph 47 % 0.0 in
21:42 29.2 °F 16.7 °F 1016.5 in WSW 6.4 mph 17.7 mph 47 % 0.0 in
21:47 29.1 °F 16.6 °F 1016.8 in WSW 6.4 mph 17.7 mph 47 % 0.0 in
21:52 28.9 °F 16.8 °F 1016.8 in WSW 3.2 mph 17.7 mph 48 % 0.0 in
21:57 28.7 °F 16.9 °F 1016.8 in WSW 1.6 mph 12.9 mph 49 % 0.0 in
22:02 28.6 °F 16.8 °F 1016.8 in WSW 6.4 mph 12.9 mph 49 % 0.0 in
22:12 28.4 °F 17.3 °F 1017.2 in SW 3.2 mph 11.3 mph 51 % 0.0 in
22:17 28.3 °F 17.5 °F 1017.2 in SW 4.8 mph 16.1 mph 52 % 0.0 in
22:22 28.2 °F 17.7 °F 1017.2 in WSW 4.8 mph 16.1 mph 53 % 0.0 in
22:27 28.1 °F 17.9 °F 1017.2 in WSW 6.4 mph 16.1 mph 54 % 0.0 in
22:32 27.9 °F 17.7 °F 1017.5 in SW 9.7 mph 14.5 mph 54 % 0.0 in
22:37 27.8 °F 17.9 °F 1017.5 in WSW 8.0 mph 14.5 mph 55 % 0.0 in
22:42 27.7 °F 18.1 °F 1017.5 in West 4.8 mph 14.5 mph 56 % 0.0 in
22:47 27.6 °F 18.0 °F 1017.5 in SW 3.2 mph 12.9 mph 56 % 0.0 in
22:52 27.4 °F 18.1 °F 1017.5 in South 3.2 mph 12.9 mph 57 % 0.0 in
22:57 27.3 °F 18.3 °F 1017.5 in South 3.2 mph 8.0 mph 58 % 0.0 in
23:02 27.1 °F 18.4 °F 1017.5 in SSW 1.6 mph 8.0 mph 59 % 0.0 in
23:07 26.8 °F 18.4 °F 1017.8 in SW 1.6 mph 6.4 mph 60 % 0.0 in
23:12 26.6 °F 18.2 °F 1017.8 in SSW 4.8 mph 4.8 mph 60 % 0.0 in
23:17 26.6 °F 18.2 °F 1017.8 in WSW 1.6 mph 4.8 mph 60 % 0.0 in
23:22 26.6 °F 18.5 °F 1017.8 in SSW 4.8 mph 6.4 mph 61 % 0.0 in
23:27 26.5 °F 18.4 °F 1017.8 in SSW 1.6 mph 6.4 mph 61 % 0.0 in
23:32 26.4 °F 18.5 °F 1017.8 in Calm   8.0 mph 62 % 0.0 in
23:37 26.3 °F 18.4 °F 1017.8 in SSE 1.6 mph 9.7 mph 62 % 0.0 in
23:42 26.2 °F 18.6 °F 1017.8 in Calm   9.7 mph 63 % 0.0 in
23:47 26.0 °F 18.4 °F 1017.8 in Calm   6.4 mph 63 % 0.0 in
23:52 25.9 °F 18.3 °F 1017.8 in Calm   4.8 mph 63 % 0.0 in
23:57 25.8 °F 18.5 °F 1017.8 in Calm   3.2 mph 64 % 0.0 in
Meteo18
Compliments of Weather Underground - 4 mb

Script developed by  Jim McMurry - jmcmurry@mwt.net Adapted for the template by  Wim van der Kuil - Leuven-Template.eu

You find our weather info also at:

European Weather Network

Weather Underground

Equipment we use:

Weather-station
Davis Vue

Weather-program
Meteobridge

Weather-server
Raspberry PI 2 B+

Provider
1 and 1

Davis Vue

Meteobridge

Raspberry PI 2 B+

1 and 1